Time;durP1;ratioP1;P1;durP2;ratioP2;P2;SDS_P1;SDS_P2;PMS_P1;PMS_P2;Temp;Humidity;BMP_temperature;BMP_pressure;BME280_temperature;BME280_humidity;BME280_pressure;Samples;Min_cycle;Max_cycle;Signal;HPM_P1;HPM_P2
2022/12/17 13:06:39;;;;;;;16.90;11.40;;;;;;;18.77;39.78;102512.88;5017640;28;20509;-72
2022/12/17 13:09:14;;;;;;;17.33;11.73;;;;;;;18.81;39.82;102506.50;5019555;28;20037;-71
2022/12/17 13:11:44;;;;;;;15.35;11.15;;;;;;;18.86;39.60;102515.03;5022922;28;20535;-72
2022/12/17 13:14:35;;;;;;;16.30;11.68;;;;;;;18.89;39.48;102514.00;5004943;28;20040;-70
2022/12/17 13:17:26;;;;;;;15.73;11.38;;;;;;;18.88;39.41;102507.00;4994510;28;20038;-71
2022/12/17 13:19:57;;;;;;;17.20;11.93;;;;;;;18.87;39.40;102506.16;5022203;28;20168;-70
2022/12/17 13:22:23;;;;;;;17.63;11.45;;;;;;;18.85;39.31;102508.91;5022172;28;20040;-72
2022/12/17 13:24:50;;;;;;;17.35;12.65;;;;;;;18.81;39.59;102502.06;5022414;28;20038;-71
2022/12/17 13:27:51;;;;;;;19.05;12.57;;;;;;;18.82;39.47;102503.75;5022613;28;20073;-71
2022/12/17 13:30:16;;;;;;;17.42;12.20;;;;;;;18.81;39.23;102496.75;4934321;29;20170;-71
2022/12/17 13:32:52;;;;;;;17.87;12.83;;;;;;;18.78;39.72;102498.75;5001971;28;20498;-71
2022/12/17 13:35:38;;;;;;;18.85;12.10;;;;;;;18.78;39.73;102493.47;5020509;28;20703;-71
2022/12/17 13:38:28;;;;;;;17.20;12.07;;;;;;;18.80;39.86;102502.13;5022482;28;20104;-71
2022/12/17 13:41:07;;;;;;;19.00;12.80;;;;;;;18.79;40.05;102496.00;5002691;28;20453;-72
2022/12/17 13:43:41;;;;;;;17.05;11.82;;;;;;;18.75;39.50;102489.19;5021555;28;20073;-73
2022/12/17 13:46:19;;;;;;;15.80;12.05;;;;;;;18.76;39.60;102490.06;5021500;28;20041;-70
2022/12/17 13:48:51;;;;;;;14.90;12.20;;;;;;;18.74;39.69;102490.16;5021484;28;20037;-70
2022/12/17 13:51:19;;;;;;;15.77;12.25;;;;;;;18.78;39.62;102502.22;5020407;28;20072;-71
2022/12/17 13:54:15;;;;;;;14.80;11.60;;;;;;;18.79;39.72;102498.66;5017705;28;20034;-73
2022/12/17 13:56:41;;;;;;;18.25;11.55;;;;;;;18.75;39.89;102494.47;5009897;28;20403;-72
2022/12/17 13:59:15;;;;;;;17.13;11.95;;;;;;;18.80;39.46;102502.13;5017081;28;20033;-72
2022/12/17 14:01:52;;;;;;;17.23;12.05;;;;;;;18.75;39.98;102497.13;5018242;28;20056;-71
2022/12/17 14:04:22;;;;;;;16.73;11.88;;;;;;;18.79;39.86;102503.09;5011624;28;20083;-72
2022/12/17 14:06:48;;;;;;;15.20;10.63;;;;;;;18.79;39.55;102508.38;5021587;28;20122;-73
2022/12/17 14:09:17;;;;;;;17.40;11.73;;;;;;;18.76;39.59;102504.13;5021370;28;20052;-72
2022/12/17 14:14:30;;;;;;;;;;;;;;;18.82;39.44;102502.91;5015003;28;20116;-68
2022/12/17 14:16:56;;;;;;;16.23;12.25;;;;;;;18.77;39.66;102502.31;5021474;28;19916;-71
2022/12/17 14:19:23;;;;;;;17.40;12.65;;;;;;;18.73;39.26;102506.09;5020545;28;20489;-69
2022/12/17 14:21:49;;;;;;;15.85;11.52;;;;;;;18.73;39.36;102501.66;5021708;28;20477;-71
2022/12/17 14:24:17;;;;;;;14.75;11.68;;;;;;;18.71;39.60;102508.81;5021283;28;20029;-71
2022/12/17 14:26:48;;;;;;;15.00;11.10;;;;;;;18.72;39.74;102520.22;5021243;28;20030;-72
2022/12/17 14:29:13;;;;;;;15.63;11.55;;;;;;;18.75;39.53;102512.13;5018769;28;20033;-71
2022/12/17 14:31:39;;;;;;;14.75;10.57;;;;;;;18.77;39.83;102512.88;5020766;28;20040;-70
2022/12/17 14:34:06;;;;;;;16.20;11.63;;;;;;;18.76;39.62;102511.19;5020641;28;20440;-72
2022/12/17 14:36:34;;;;;;;15.82;11.10;;;;;;;18.76;39.51;102512.03;5021105;28;20148;-72
2022/12/17 14:39:02;;;;;;;15.18;10.52;;;;;;;18.78;39.62;102515.44;5020995;28;20112;-72
2022/12/17 14:44:23;;;;;;;15.27;10.10;;;;;;;18.80;39.77;102523.25;5019151;28;20063;-74
2022/12/17 14:46:52;;;;;;;15.73;10.15;;;;;;;18.80;39.67;102523.25;5020449;28;20477;-75
2022/12/17 14:49:20;;;;;;;14.65;9.95;;;;;;;18.81;39.77;102530.25;5019393;28;20469;-75
2022/12/17 14:51:47;;;;;;;15.18;10.57;;;;;;;18.79;39.63;102527.72;5020664;28;20033;-74
2022/12/17 14:54:12;;;;;;;15.02;10.00;;;;;;;18.82;39.71;102532.81;5018623;28;20053;-69
2022/12/17 14:56:37;;;;;;;14.57;10.47;;;;;;;18.78;39.87;102526.00;5017813;28;20037;-72
2022/12/17 14:59:03;;;;;;;15.05;10.02;;;;;;;18.77;39.74;102529.59;5018952;28;20329;-72
2022/12/17 15:01:28;;;;;;;13.65;9.63;;;;;;;18.79;39.69;102538.28;5019294;28;20049;-72
2022/12/17 15:03:55;;;;;;;15.02;9.90;;;;;;;18.79;39.87;102542.72;5019282;28;20048;-74
2022/12/17 15:06:21;;;;;;;13.50;9.55;;;;;;;18.80;39.90;102547.03;5019018;28;20034;-72
2022/12/17 15:08:49;;;;;;;14.05;8.82;;;;;;;18.76;39.70;102541.09;5019964;28;20123;-76
2022/12/17 15:11:19;;;;;;;13.30;9.85;;;;;;;18.80;39.77;102540.00;5020017;28;20088;-73
2022/12/17 15:13:44;;;;;;;16.17;10.25;;;;;;;18.78;39.88;102539.19;5018279;28;20452;-72
2022/12/17 15:16:10;;;;;;;13.35;9.60;;;;;;;18.81;39.78;102543.47;5020340;28;20053;-75
2022/12/17 15:18:35;;;;;;;13.63;9.15;;;;;;;18.79;39.52;102553.28;5018465;28;20481;-76
2022/12/17 15:21:01;;;;;;;15.63;9.50;;;;;;;18.78;39.57;102559.50;5017585;28;20462;-73
2022/12/17 15:23:26;;;;;;;13.55;9.52;;;;;;;18.76;39.82;102562.22;5020658;28;20441;-79
2022/12/17 15:25:53;;;;;;;13.60;9.02;;;;;;;18.79;39.85;102569.13;5021186;28;20211;-73
2022/12/17 15:28:20;;;;;;;12.45;9.05;;;;;;;18.80;39.94;102576.09;5021849;28;20046;-75
2022/12/17 15:30:48;;;;;;;15.15;9.40;;;;;;;18.79;39.62;102575.25;5022067;28;20029;-69
2022/12/17 15:33:13;;;;;;;12.48;9.38;;;;;;;18.81;39.95;102573.38;5019343;28;20501;-74
2022/12/17 15:35:39;;;;;;;14.43;8.73;;;;;;;18.78;39.93;102562.97;5022249;28;20033;-74
2022/12/17 15:38:05;;;;;;;12.57;8.77;;;;;;;18.88;39.78;102576.53;5023244;28;20096;-75
2022/12/17 15:40:30;;;;;;;13.80;8.60;;;;;;;18.88;39.81;102579.19;5019997;28;20164;-76
2022/12/17 15:43:11;;;;;;;12.57;9.00;;;;;;;18.86;39.72;102575.78;5020608;28;20973;-71
2022/12/17 15:45:45;;;;;;;13.10;8.88;;;;;;;18.90;39.73;102579.09;5020701;28;20081;-74
2022/12/17 15:48:13;;;;;;;13.23;8.23;;;;;;;18.91;39.54;102573.72;5023289;28;20048;-71
2022/12/17 15:50:38;;;;;;;11.75;8.68;;;;;;;18.96;39.91;102582.25;5002610;28;20037;-72
2022/12/17 15:53:04;;;;;;;13.80;8.73;;;;;;;18.96;39.83;102586.66;5019202;28;20413;-72
2022/12/17 15:55:29;;;;;;;11.73;8.40;;;;;;;18.97;39.68;102589.22;5022411;28;20037;-71
2022/12/17 15:57:54;;;;;;;13.30;8.82;;;;;;;18.98;39.55;102590.09;5020934;28;20077;-69
2022/12/17 16:00:20;;;;;;;13.27;7.95;;;;;;;19.00;39.55;102593.50;5021370;28;20036;-69
2022/12/17 16:02:47;;;;;;;14.32;9.38;;;;;;;19.06;39.45;102595.78;5020887;28;20397;-70
2022/12/17 16:05:12;;;;;;;15.02;8.77;;;;;;;19.06;39.24;102598.44;5021308;28;20041;-71
2022/12/17 16:07:38;;;;;;;13.02;8.68;;;;;;;19.08;39.37;102607.09;5022036;28;20033;-71
2022/12/17 16:10:05;;;;;;;16.33;8.52;;;;;;;19.06;39.56;102609.00;5022107;28;20401;-69
2022/12/17 16:12:30;;;;;;;14.50;8.95;;;;;;;19.01;39.36;102593.41;5023664;28;20037;-69
2022/12/17 16:14:56;;;;;;;12.07;8.38;;;;;;;19.01;39.44;102590.75;5022197;28;20033;-69
2022/12/17 16:17:21;;;;;;;14.07;8.43;;;;;;;18.99;39.40;102591.78;5021707;28;20034;-73
2022/12/17 16:19:46;;;;;;;10.85;7.68;;;;;;;18.97;39.48;102585.75;5022650;28;20057;-68
2022/12/17 16:22:11;;;;;;;12.48;7.97;;;;;;;18.94;39.51;102583.28;5021105;28;20029;-69
2022/12/17 16:24:37;;;;;;;12.80;8.10;;;;;;;18.94;39.51;102593.84;5022262;28;20454;-71
2022/12/17 16:27:02;;;;;;;13.35;8.35;;;;;;;18.92;39.35;102591.28;5021044;28;20041;-69
2022/12/17 16:29:28;;;;;;;13.85;7.90;;;;;;;18.93;39.52;102594.78;5022841;28;20083;-69
2022/12/17 16:31:53;;;;;;;11.60;7.32;;;;;;;18.95;39.56;102592.91;5022349;28;20060;-69
2022/12/17 16:34:18;;;;;;;12.00;7.38;;;;;;;18.98;39.25;102598.03;5022498;28;20025;-71
2022/12/17 16:36:43;;;;;;;12.35;7.88;;;;;;;18.96;39.22;102589.31;5014734;28;20049;-75
2022/12/17 16:39:15;;;;;;;11.70;7.57;;;;;;;19.07;39.29;102596.63;5016974;28;20026;-71
2022/12/17 16:41:40;;;;;;;13.77;7.90;;;;;;;19.12;39.04;102589.28;5015167;28;20263;-73
2022/12/17 16:44:07;;;;;;;11.07;7.13;;;;;;;19.21;39.35;102589.59;5017355;28;20139;-69
2022/12/17 16:46:35;;;;;;;13.10;7.63;;;;;;;19.21;39.41;102583.47;5018096;28;20560;-71
2022/12/17 16:49:06;;;;;;;12.20;7.00;;;;;;;19.25;39.75;102589.41;5018453;28;20474;-69
2022/12/17 16:51:31;;;;;;;13.65;8.10;;;;;;;19.31;40.00;102599.63;5017946;28;20037;-70
2022/12/17 16:53:57;;;;;;;12.13;7.72;;;;;;;19.32;39.96;102603.97;5016017;28;20052;-70
2022/12/17 16:56:26;;;;;;;11.95;7.78;;;;;;;19.30;39.85;102596.16;5015206;28;20037;-72
2022/12/17 16:58:52;;;;;;;12.13;7.00;;;;;;;19.34;39.86;102604.75;5008037;28;20124;-72
2022/12/17 17:01:23;;;;;;;11.55;6.65;;;;;;;19.36;39.90;102603.72;4946310;28;20052;-72
2022/12/17 17:03:48;;;;;;;12.70;7.22;;;;;;;19.40;39.60;102594.66;5009001;28;20030;-73
2022/12/17 17:06:15;;;;;;;12.77;7.07;;;;;;;19.45;39.86;102591.72;5009335;28;20034;-72
2022/12/17 17:08:41;;;;;;;11.50;7.60;;;;;;;19.49;39.67;102589.78;5010345;28;20041;-71
2022/12/17 17:11:20;;;;;;;13.85;7.32;;;;;;;19.49;40.07;102595.06;4992305;28;20029;-72
2022/12/17 17:13:50;;;;;;;10.05;7.03;;;;;;;19.50;40.20;102604.69;5010637;28;20052;-70
2022/12/17 17:16:17;;;;;;;11.60;7.53;;;;;;;19.49;39.96;102595.91;4993573;28;20096;-68
2022/12/17 17:18:42;;;;;;;10.95;6.18;;;;;;;19.52;40.01;102608.94;5014285;28;20054;-72
2022/12/17 17:21:11;;;;;;;12.75;6.97;;;;;;;19.52;39.94;102611.59;5018631;28;20041;-70
2022/12/17 17:23:37;;;;;;;12.50;7.25;;;;;;;19.54;40.09;102617.63;5013861;28;20129;-70
2022/12/17 17:26:02;;;;;;;11.60;7.55;;;;;;;19.54;40.05;102619.44;5013927;28;20145;-70
2022/12/17 17:28:28;;;;;;;11.90;7.50;;;;;;;19.54;39.98;102616.78;5012479;28;20065;-72
2022/12/17 17:31:01;;;;;;;11.77;7.45;;;;;;;19.54;40.18;102617.63;5014439;28;20561;-72
2022/12/17 17:33:32;;;;;;;12.67;6.80;;;;;;;19.55;40.11;102618.47;5009161;28;20067;-72
2022/12/17 17:36:04;;;;;;;13.15;7.35;;;;;;;19.56;40.12;102625.47;5011032;28;20305;-70
2022/12/17 17:38:33;;;;;;;11.02;6.82;;;;;;;19.57;39.75;102630.69;5012608;28;20451;-71
2022/12/17 17:40:58;;;;;;;11.90;7.13;;;;;;;19.57;39.96;102625.38;5019399;28;20041;-69
2022/12/17 17:43:23;;;;;;;12.05;6.75;;;;;;;19.60;39.82;102627.00;5020125;28;20048;-68
2022/12/17 17:45:48;;;;;;;10.10;7.07;;;;;;;19.61;39.72;102626.03;5019360;28;20033;-68
2022/12/17 17:48:14;;;;;;;13.77;7.05;;;;;;;19.61;39.78;102627.84;5015818;28;20037;-69
2022/12/17 17:50:39;;;;;;;10.65;6.82;;;;;;;19.63;39.87;102626.81;5015874;28;20060;-70
2022/12/17 17:53:04;;;;;;;11.00;6.90;;;;;;;19.62;39.61;102627.75;5025533;28;20091;-69
2022/12/17 17:55:33;;;;;;;11.57;7.53;;;;;;;19.51;39.70;102615.16;5018346;28;20107;-71
2022/12/17 17:57:58;;;;;;;10.57;6.78;;;;;;;19.61;39.63;102633.13;5018678;28;20096;-71
2022/12/17 18:00:24;;;;;;;10.23;7.05;;;;;;;19.60;39.67;102632.28;5033811;28;20516;-68
2022/12/17 18:02:49;;;;;;;10.80;6.88;;;;;;;19.56;39.70;102626.31;5018239;28;20045;-71
2022/12/17 18:05:14;;;;;;;13.35;7.50;;;;;;;19.57;39.60;102625.38;5021490;28;20046;-69
2022/12/17 18:07:40;;;;;;;12.18;6.80;;;;;;;19.58;39.65;102627.09;5025263;28;20473;-68
2022/12/17 18:10:06;;;;;;;10.90;7.22;;;;;;;19.63;39.71;102623.31;5028336;28;20051;-69
2022/12/17 18:15:15;;;;;;;10.85;7.28;;;;;;;19.62;39.91;102622.47;5021771;28;20056;-69
2022/12/17 18:17:41;;;;;;;12.63;7.25;;;;;;;19.66;39.73;102628.41;5020378;28;20033;-71
2022/12/17 18:20:08;;;;;;;11.57;6.80;;;;;;;19.53;39.72;102599.22;5020710;28;20083;-70
2022/12/17 18:22:36;;;;;;;11.55;6.90;;;;;;;19.67;39.75;102630.97;5019690;28;20033;-73
2022/12/17 18:25:02;;;;;;;14.07;7.20;;;;;;;19.62;39.37;102622.47;5019561;28;20047;-71
2022/12/17 18:27:27;;;;;;;13.93;8.05;;;;;;;19.69;39.32;102629.09;5018337;28;20038;-70
2022/12/17 18:29:52;;;;;;;11.13;7.20;;;;;;;19.68;39.68;102630.03;5020362;28;20068;-71
2022/12/17 18:32:18;;;;;;;10.05;6.95;;;;;;;19.68;39.60;102626.56;5020118;28;20025;-71
2022/12/17 18:34:43;;;;;;;13.68;7.63;;;;;;;19.64;39.67;102625.88;5033478;28;20375;-71
2022/12/17 18:37:08;;;;;;;10.77;6.88;;;;;;;19.65;39.62;102626.75;5016866;28;20064;-72
2022/12/17 18:39:33;;;;;;;12.57;7.20;;;;;;;19.65;39.39;102624.09;5020731;28;20115;-70
2022/12/17 18:44:42;;;;;;;12.85;7.35;;;;;;;19.64;39.49;102631.16;5020709;28;20906;-72
2022/12/17 18:47:09;;;;;;;13.52;7.25;;;;;;;19.65;39.36;102632.03;5020243;28;20033;-72
2022/12/17 18:49:34;;;;;;;11.45;7.40;;;;;;;19.67;39.49;102624.84;5019970;28;20068;-73
2022/12/17 18:52:00;;;;;;;12.25;7.10;;;;;;;19.68;39.45;102619.47;5020007;28;20572;-73
2022/12/17 18:54:28;;;;;;;11.15;6.82;;;;;;;19.72;39.33;102625.41;5017842;28;20087;-71
2022/12/17 18:56:59;;;;;;;12.57;7.57;;;;;;;19.78;39.63;102627.72;5020082;28;20533;-73
2022/12/17 18:59:26;;;;;;;11.63;7.45;;;;;;;19.81;39.35;102634.63;5017768;28;20049;-71
2022/12/17 19:01:52;;;;;;;12.95;8.00;;;;;;;19.79;39.14;102633.84;5019723;28;20720;-71
2022/12/17 19:04:19;;;;;;;13.45;8.00;;;;;;;19.79;39.26;102632.09;5019220;28;20542;-72
2022/12/17 19:06:47;;;;;;;11.48;8.10;;;;;;;19.80;39.32;102633.75;5018969;28;20469;-72
2022/12/17 19:09:34;;;;;;;13.10;8.10;;;;;;;19.84;39.02;102640.59;5019715;28;20056;-72
2022/12/17 19:12:00;;;;;;;11.93;7.22;;;;;;;19.81;39.31;102638.13;5019796;28;20029;-73
2022/12/17 19:14:26;;;;;;;13.48;8.10;;;;;;;19.80;39.13;102638.22;5018217;28;20049;-71
2022/12/17 19:16:53;;;;;;;12.90;7.97;;;;;;;19.79;39.17;102642.66;5019564;28;20029;-71
2022/12/17 19:19:20;;;;;;;11.88;7.15;;;;;;;19.77;39.21;102646.34;5019990;28;20091;-71
2022/12/17 19:21:45;;;;;;;12.27;7.50;;;;;;;19.79;39.00;102655.88;5018119;28;20484;-73
2022/12/17 19:24:13;;;;;;;13.77;7.28;;;;;;;19.74;39.07;102657.91;5019083;28;20049;-72
2022/12/17 19:26:39;;;;;;;15.43;8.25;;;;;;;19.73;39.04;102661.50;5020015;28;20034;-71
2022/12/17 19:29:06;;;;;;;10.68;7.47;;;;;;;19.76;39.17;102666.66;5019853;28;20096;-72
2022/12/17 19:31:32;;;;;;;11.25;7.60;;;;;;;19.68;39.25;102658.28;5019763;28;20040;-72
2022/12/17 19:34:00;;;;;;;11.38;7.25;;;;;;;19.74;39.17;102665.84;5019730;28;20033;-72
2022/12/17 19:36:28;;;;;;;12.93;7.75;;;;;;;19.70;39.15;102665.19;5019025;28;20052;-73
2022/12/17 19:38:55;;;;;;;12.25;7.80;;;;;;;19.69;39.13;102670.56;5019376;28;20051;-70
2022/12/17 19:41:21;;;;;;;10.35;7.20;;;;;;;19.66;39.04;102668.09;5018340;28;20046;-70
2022/12/17 19:43:53;;;;;;;10.50;7.53;;;;;;;19.70;38.77;102666.97;5017137;28;20045;-74
2022/12/17 19:46:19;;;;;;;12.95;7.68;;;;;;;19.64;39.12;102654.97;5018808;28;20136;-69
2022/12/17 19:48:45;;;;;;;14.05;7.97;;;;;;;19.68;39.08;102658.28;5019505;28;20136;-70
2022/12/17 19:51:12;;;;;;;12.18;7.57;;;;;;;19.66;39.00;102654.88;5018944;28;20092;-71
2022/12/17 19:53:39;;;;;;;12.35;7.68;;;;;;;19.67;39.03;102660.06;5019869;28;20120;-70
2022/12/17 19:56:32;;;;;;;13.18;7.78;;;;;;;19.69;39.04;102667.91;5018811;28;20073;-72
2022/12/17 19:59:02;;;;;;;12.43;7.60;;;;;;;19.67;39.21;102670.66;5015702;28;20046;-75
2022/12/17 20:01:33;;;;;;;11.75;7.60;;;;;;;19.64;39.30;102662.06;5017131;28;20052;-73
2022/12/17 20:03:59;;;;;;;13.25;8.20;;;;;;;19.65;38.46;102663.78;5011636;28;20049;-69
2022/12/17 20:06:27;;;;;;;17.33;8.80;;;;;;;19.62;37.99;102656.00;5007317;28;20048;-73
2022/12/17 20:08:53;;;;;;;15.88;9.02;;;;;;;19.58;38.23;102664.13;4993291;28;20041;-64
2022/12/17 20:11:32;;;;;;;17.50;9.07;;;;;;;19.61;38.10;102670.16;5014988;28;20064;-74
2022/12/17 20:14:19;;;;;;;14.50;9.05;;;;;;;19.61;38.02;102684.22;5014633;28;20429;-72
2022/12/17 20:16:50;;;;;;;14.95;8.90;;;;;;;19.60;37.96;102693.13;5014846;28;20073;-68
2022/12/17 20:19:18;;;;;;;13.50;8.73;;;;;;;19.52;37.94;102679.50;5014238;28;20056;-69
2022/12/17 20:21:43;;;;;;;16.45;8.52;;;;;;;19.63;37.87;102700.88;5015930;28;20044;-67
2022/12/17 20:24:10;;;;;;;15.98;8.75;;;;;;;19.65;38.15;102698.16;5017462;28;20041;-68
2022/12/17 20:26:35;;;;;;;12.85;8.05;;;;;;;19.61;38.12;102694.81;5012763;28;20095;-73
2022/12/17 20:29:02;;;;;;;12.10;7.95;;;;;;;19.63;38.31;102690.31;5014545;28;20033;-73
2022/12/17 20:31:27;;;;;;;12.65;7.38;;;;;;;19.64;38.66;102685.84;5019820;28;20034;-68
2022/12/17 20:33:53;;;;;;;13.80;7.53;;;;;;;19.63;38.78;102679.72;5019118;28;20044;-69
2022/12/17 20:36:20;;;;;;;9.88;6.53;;;;;;;19.65;39.01;102684.94;5020017;28;20045;-70
2022/12/17 20:38:45;;;;;;;11.77;7.18;;;;;;;19.68;38.91;102687.38;5022912;28;20128;-70
2022/12/17 20:41:22;;;;;;;11.63;6.90;;;;;;;19.68;38.93;102674.16;5017948;28;20167;-70
2022/12/17 20:43:48;;;;;;;12.55;7.15;;;;;;;19.69;38.66;102681.13;5020443;28;20063;-69
2022/12/17 20:46:15;;;;;;;11.32;7.32;;;;;;;19.67;38.97;102667.16;5020566;28;20041;-70
2022/12/17 20:48:42;;;;;;;13.95;8.10;;;;;;;19.68;39.19;102674.16;5021447;28;20050;-69
2022/12/17 20:51:09;;;;;;;14.23;7.40;;;;;;;19.64;38.91;102662.06;5021833;28;20048;-70
2022/12/17 20:53:35;;;;;;;12.63;7.88;;;;;;;19.63;38.74;102671.78;5020513;28;20041;-71
2022/12/17 20:56:06;;;;;;;14.15;7.45;;;;;;;19.63;39.06;102669.16;5019923;28;20753;-72
2022/12/17 20:58:32;;;;;;;11.55;7.28;;;;;;;19.64;38.74;102668.19;5021051;28;20978;-71
2022/12/17 21:01:06;;;;;;;12.02;6.85;;;;;;;19.63;38.39;102670.91;5021697;28;20116;-72
2022/12/17 21:03:32;;;;;;;14.27;8.00;;;;;;;19.65;38.96;102679.63;5021837;28;20108;-69
2022/12/17 21:06:34;;;;;;;12.32;7.53;;;;;;;19.67;38.95;102683.88;5021570;28;20100;-68
2022/12/17 21:08:59;;;;;;;12.63;7.50;;;;;;;19.69;39.02;102686.44;5022181;28;20053;-73
2022/12/17 21:11:28;;;;;;;12.15;7.25;;;;;;;19.69;38.79;102674.06;5019527;28;20088;-71
2022/12/17 21:13:54;;;;;;;11.70;7.57;;;;;;;19.67;38.71;102667.16;5021276;28;20067;-71
2022/12/17 21:16:26;;;;;;;12.35;7.30;;;;;;;19.67;38.83;102668.00;5021082;28;20037;-73
2022/12/17 21:18:52;;;;;;;11.65;6.75;;;;;;;19.71;38.88;102677.47;5021374;28;20599;-71
2022/12/17 21:21:20;;;;;;;10.35;7.18;;;;;;;19.68;38.93;102669.72;5021023;28;20270;-74
2022/12/17 21:23:46;;;;;;;11.13;7.60;;;;;;;19.68;38.93;102672.38;5020541;28;20029;-74
2022/12/17 21:26:24;;;;;;;12.23;6.85;;;;;;;19.69;38.80;102681.13;5021675;28;20604;-71
2022/12/17 21:28:51;;;;;;;10.45;7.00;;;;;;;19.68;38.90;102685.59;5019826;28;20037;-74
2022/12/17 21:31:23;;;;;;;11.50;7.38;;;;;;;19.65;38.67;102687.56;5019686;28;20025;-71
2022/12/17 21:33:51;;;;;;;12.40;7.05;;;;;;;19.65;38.59;102692.88;5018105;28;20617;-70
2022/12/17 21:36:18;;;;;;;11.52;7.07;;;;;;;19.60;38.60;102682.56;5021035;28;20057;-71
2022/12/17 21:38:44;;;;;;;11.25;6.93;;;;;;;19.62;38.59;102682.47;5020311;28;20123;-72
2022/12/17 21:41:16;;;;;;;11.35;7.25;;;;;;;19.61;38.54;102689.53;5003359;28;20132;-75
2022/12/17 21:43:41;;;;;;;9.93;6.80;;;;;;;19.57;38.37;102688.00;5019426;28;20618;-71
2022/12/17 21:46:08;;;;;;;11.68;7.28;;;;;;;19.52;38.00;102688.28;5020531;28;20041;-71
2022/12/17 21:48:36;;;;;;;10.57;7.30;;;;;;;19.53;38.53;102700.53;5021341;28;20098;-69
2022/12/17 21:51:08;;;;;;;13.32;8.30;;;;;;;19.48;38.22;102691.19;5018118;28;20088;-69
2022/12/17 21:53:33;;;;;;;14.25;8.07;;;;;;;19.37;38.24;102679.44;5020093;28;20033;-71
2022/12/17 21:56:08;;;;;;;13.18;8.57;;;;;;;19.42;37.88;102694.19;5021573;28;20045;-70
2022/12/17 21:58:33;;;;;;;;;;;;;;;19.49;37.65;102706.97;5019942;28;20539;-72
2022/12/17 22:01:10;;;;;;;14.80;9.50;;;;;;;19.39;37.44;102701.38;5015915;28;19925;-73
2022/12/17 22:03:35;;;;;;;13.50;8.65;;;;;;;19.39;37.44;102709.28;5020107;28;20033;-71
2022/12/17 22:06:12;;;;;;;12.50;8.60;;;;;;;19.31;37.40;102705.38;5020106;28;20485;-71
2022/12/17 22:08:39;;;;;;;16.35;10.50;;;;;;;19.30;37.30;102703.69;5020037;28;20041;-73
2022/12/17 22:11:16;;;;;;;13.95;9.32;;;;;;;19.24;36.91;102706.69;5020629;28;20072;-71
2022/12/17 22:14:01;;;;;;;14.35;8.80;;;;;;;19.24;36.88;102714.59;5019454;28;20036;-74
2022/12/17 22:16:32;;;;;;;15.10;9.23;;;;;;;19.19;36.97;102715.69;5021024;28;20048;-72
2022/12/17 22:18:59;;;;;;;13.68;9.00;;;;;;;19.20;36.81;102728.00;5020450;28;20473;-70
2022/12/17 22:21:24;;;;;;;14.80;9.40;;;;;;;19.15;36.67;102727.41;5019474;28;20398;-70
2022/12/17 22:23:50;;;;;;;12.50;9.45;;;;;;;19.13;36.75;102723.13;5019397;28;20041;-71
2022/12/17 22:26:17;;;;;;;16.33;9.57;;;;;;;19.11;36.72;102727.66;5020585;28;20168;-74
2022/12/17 22:28:47;;;;;;;13.63;9.10;;;;;;;19.11;36.41;102738.22;5019315;28;20431;-69
2022/12/17 22:33:58;;;;;;;12.80;8.82;;;;;;;19.05;36.04;102736.75;5020970;28;20575;-71
2022/12/17 22:36:28;;;;;;;15.15;10.35;;;;;;;19.00;35.72;102723.81;5021048;28;20054;-69
2022/12/17 22:38:53;;;;;;;14.60;9.02;;;;;;;19.01;35.79;102727.31;5021223;28;20037;-71
2022/12/17 22:44:03;;;;;;;13.73;9.95;;;;;;;18.95;35.24;102727.66;5018133;28;20143;-71
2022/12/17 22:46:29;;;;;;;13.43;9.38;;;;;;;18.90;35.26;102713.81;5019004;28;20108;-69
2022/12/17 22:48:56;;;;;;;14.82;9.60;;;;;;;18.84;35.42;102713.22;5018675;28;20029;-70
2022/12/17 22:51:22;;;;;;;16.42;9.93;;;;;;;18.84;34.75;102715.88;5018687;28;20029;-69
2022/12/17 22:53:48;;;;;;;14.10;9.18;;;;;;;18.80;34.67;102709.03;5017935;28;20134;-72
2022/12/17 22:56:14;;;;;;;14.57;9.57;;;;;;;18.77;34.38;102710.97;5021451;28;20076;-72
2022/12/17 22:58:40;;;;;;;12.90;9.30;;;;;;;18.75;34.42;102713.69;5019708;28;20033;-70
2022/12/17 23:01:06;;;;;;;15.57;9.88;;;;;;;18.70;34.25;102706.97;5018141;28;20037;-70
2022/12/17 23:03:31;;;;;;;13.85;9.30;;;;;;;18.71;34.25;102714.81;5017787;28;20224;-69
2022/12/17 23:06:14;;;;;;;13.10;9.38;;;;;;;18.68;34.08;102725.53;5019098;28;20116;-71
2022/12/17 23:08:40;;;;;;;14.38;9.45;;;;;;;18.61;33.70;102717.09;5020062;28;20038;-71
2022/12/17 23:11:19;;;;;;;14.82;9.75;;;;;;;18.59;34.20;102716.31;5020566;28;20037;-70
2022/12/17 23:13:44;;;;;;;12.52;9.05;;;;;;;18.58;33.82;102714.63;5020517;28;20128;-69
2022/12/17 23:16:12;;;;;;;13.43;9.88;;;;;;;18.54;33.98;102702.50;5020033;28;20104;-70
2022/12/17 23:18:41;;;;;;;17.58;9.48;;;;;;;18.54;33.95;102696.41;5020368;28;20033;-69
2022/12/17 23:21:19;;;;;;;13.90;9.15;;;;;;;18.48;33.99;102682.59;5020140;28;20108;-68
2022/12/17 23:23:45;;;;;;;13.32;9.85;;;;;;;18.50;33.71;102679.88;5020469;28;20120;-70
2022/12/17 23:26:16;;;;;;;15.43;10.40;;;;;;;18.44;33.66;102681.03;5020708;28;20029;-69
2022/12/17 23:28:42;;;;;;;13.50;10.25;;;;;;;18.42;33.80;102690.84;5020485;28;20034;-69
2022/12/17 23:31:09;;;;;;;13.73;9.43;;;;;;;18.40;33.51;102691.84;5019447;28;20112;-70
2022/12/17 23:33:36;;;;;;;13.30;9.45;;;;;;;18.37;33.50;102690.22;5020367;28;20040;-70
2022/12/17 23:36:23;;;;;;;14.30;9.82;;;;;;;18.37;33.52;102699.91;5019866;28;20057;-71
2022/12/17 23:38:50;;;;;;;13.40;9.70;;;;;;;18.36;33.85;102704.34;5019315;28;20033;-71
2022/12/17 23:41:20;;;;;;;12.50;9.30;;;;;;;18.33;33.81;102693.97;5019560;28;20052;-70
2022/12/17 23:43:46;;;;;;;15.27;9.77;;;;;;;18.28;33.77;102696.84;5016918;28;20482;-69
2022/12/17 23:46:11;;;;;;;13.55;9.40;;;;;;;18.26;33.53;102698.72;5021098;28;20492;-71
2022/12/17 23:48:39;;;;;;;18.48;10.52;;;;;;;18.27;33.74;102699.56;5022296;28;20033;-69
2022/12/17 23:51:06;;;;;;;14.77;9.57;;;;;;;18.27;34.03;102707.47;5022053;28;20025;-70
2022/12/17 23:53:33;;;;;;;15.05;9.98;;;;;;;18.23;33.63;102711.19;5022762;28;20064;-69
2022/12/17 23:56:08;;;;;;;14.80;9.63;;;;;;;18.23;33.82;102712.06;5022906;28;20034;-69
2022/12/17 23:58:35;;;;;;;12.75;9.40;;;;;;;18.23;33.86;102711.19;5022826;28;20543;-70
